Thunder radar more information blitzortung!


Radar de pluja more information rain snow radar


Visita la nostra xarxa de llocs de meteo:

Template documentation
and downloads

And another site



Extreme low temperature From: 13-12-2017 09:00 Until: 09:59 warning for: Extreme low temperature Level: Yellow info button

Pagina Historial Weather Underground text

Diari Resum Juliol 22, 2017 Unitats:  Mètric    Imperial   Tant
« Previous Dia
SegĂźent Dia »
Diari Setmana Mensual Anual Personalitzada
  Maxima: Minima: Media:
Temperatura: 32.5 °C 18.7 °C 26.3 °C
Punt de rosada: 20.3 °C 16.7 °C 18.4 °C
Humitat: 89 % 46 % 63 %
Wind Speed: 20.4 km/h 0.0 km/h 5.6 km/h
RĂ fegues de vent: 20.9 km/h - -
Vent:- - South
Pression baro: 1016.8 hPa 1010.0 hPa -
Precipitacions: 0.0 mm    
Historical Graphs
 
 
Dades de taula per Juliol 22, 2017
Temps Temperatura Punt de rosada Pression baro Vent Wind Speed RĂ fegues de vent Humitat Rainfall Rate (Hourly)
00:00 19.6 °C 17.2 °C 1011.7 hPa Calm     86 % 0.0 mm
00:03 22.4 °C 17.6 °C 1010.0 hPa WSW 1.9 km/h 1.9 km/h 74 % 0.0 mm
00:10 19.6 °C 17.4 °C 1011.7 hPa Calm   1.6 km/h 87 % 0.0 mm
00:20 19.5 °C 17.3 °C 1011.7 hPa Calm     87 % 0.0 mm
00:30 19.5 °C 17.3 °C 1011.7 hPa Calm     87 % 0.0 mm
00:40 19.4 °C 17.2 °C 1012.8 hPa Calm     87 % 0.0 mm
00:50 19.2 °C 17.0 °C 1012.8 hPa SSW 3.2 km/h 3.2 km/h 87 % 0.0 mm
01:00 19.1 °C 16.9 °C 1011.7 hPa SW 1.6 km/h 4.8 km/h 87 % 0.0 mm
01:10 19.1 °C 17.1 °C 1011.7 hPa Calm   1.6 km/h 88 % 0.0 mm
01:20 19.1 °C 17.1 °C 1011.7 hPa Calm     88 % 0.0 mm
01:30 19.1 °C 17.1 °C 1011.7 hPa WSW 1.6 km/h 1.6 km/h 88 % 0.0 mm
01:40 19.1 °C 17.1 °C 1011.7 hPa NNE 1.6 km/h 3.2 km/h 88 % 0.0 mm
01:50 18.7 °C 16.7 °C 1011.7 hPa Calm   1.6 km/h 88 % 0.0 mm
02:00 18.8 °C 16.8 °C 1011.7 hPa SSW 1.6 km/h 3.2 km/h 88 % 0.0 mm
02:10 18.8 °C 16.9 °C 1011.7 hPa Calm   1.6 km/h 89 % 0.0 mm
02:20 18.9 °C 17.1 °C 1011.7 hPa Calm     89 % 0.0 mm
02:30 19.0 °C 17.2 °C 1011.7 hPa SW 1.6 km/h 3.2 km/h 89 % 0.0 mm
02:40 19.1 °C 17.1 °C 1011.7 hPa SW 1.6 km/h 3.2 km/h 88 % 0.0 mm
02:50 19.3 °C 17.4 °C 1011.7 hPa SW 1.6 km/h 3.2 km/h 89 % 0.0 mm
03:00 19.5 °C 17.4 °C 1011.7 hPa SW 1.6 km/h 3.2 km/h 88 % 0.0 mm
03:10 20.4 °C 18.2 °C 1011.7 hPa SE 1.6 km/h 3.2 km/h 87 % 0.0 mm
03:20 21.0 °C 18.2 °C 1011.7 hPa NE 1.6 km/h 4.8 km/h 84 % 0.0 mm
03:30 21.5 °C 18.3 °C 1011.7 hPa NE 3.2 km/h 4.8 km/h 82 % 0.0 mm
03:40 21.6 °C 18.2 °C 1012.8 hPa NE 4.8 km/h 4.8 km/h 81 % 0.0 mm
03:50 22.1 °C 18.5 °C 1012.8 hPa ENE 3.2 km/h 4.8 km/h 80 % 0.0 mm
04:00 22.3 °C 18.5 °C 1012.8 hPa NE 1.6 km/h 6.4 km/h 79 % 0.0 mm
04:10 22.9 °C 18.8 °C 1012.8 hPa NE 1.6 km/h 4.8 km/h 78 % 0.0 mm
04:20 22.9 °C 18.4 °C 1012.8 hPa NE 3.2 km/h 3.2 km/h 76 % 0.0 mm
04:30 23.5 °C 18.8 °C 1012.8 hPa Calm   4.8 km/h 75 % 0.0 mm
04:40 23.8 °C 19.1 °C 1012.8 hPa SSW 3.2 km/h 4.8 km/h 75 % 0.0 mm
09:39 23.8 °C 19.1 °C 1012.8 hPa East 3.7 km/h 3.9 km/h 75 % 0.0 mm
09:44 24.1 °C 18.9 °C 1012.8 hPa SSE 5.6 km/h 5.6 km/h 73 % 0.0 mm
09:49 24.0 °C 18.7 °C 1012.8 hPa SE 5.6 km/h 5.6 km/h 72 % 0.0 mm
09:55 24.5 °C 19.1 °C 1012.8 hPa East 1.6 km/h 4.8 km/h 72 % 0.0 mm
10:00 24.3 °C 18.5 °C 1012.8 hPa ESE 3.2 km/h 8.0 km/h 70 % 0.0 mm
10:05 24.9 °C 19.3 °C 1012.8 hPa ESE 3.2 km/h 4.8 km/h 71 % 0.0 mm
10:10 25.0 °C 18.9 °C 1013.8 hPa East 1.6 km/h 6.4 km/h 69 % 0.0 mm
10:15 25.2 °C 19.1 °C 1013.8 hPa East 3.2 km/h 6.4 km/h 69 % 0.0 mm
10:20 25.6 °C 19.5 °C 1013.8 hPa Calm   6.4 km/h 69 % 0.0 mm
10:25 26.0 °C 19.6 °C 1012.8 hPa South 3.7 km/h 3.7 km/h 68 % 0.0 mm
10:30 26.0 °C 19.6 °C 1012.8 hPa WSW 3.7 km/h 4.2 km/h 68 % 0.0 mm
10:35 26.0 °C 19.4 °C 1012.8 hPa West 5.6 km/h 5.6 km/h 67 % 0.0 mm
10:40 25.4 °C 18.4 °C 1012.8 hPa SE 8.0 km/h 9.7 km/h 65 % 0.0 mm
10:45 25.7 °C 18.8 °C 1012.8 hPa East 4.8 km/h 8.0 km/h 66 % 0.0 mm
10:50 26.3 °C 19.4 °C 1012.8 hPa North 3.7 km/h 3.7 km/h 66 % 0.0 mm
10:55 26.7 °C 19.6 °C 1012.8 hPa ESE 3.2 km/h 3.2 km/h 65 % 0.0 mm
11:00 27.0 °C 19.3 °C 1012.8 hPa NNW 5.6 km/h 5.6 km/h 63 % 0.0 mm
11:05 27.2 °C 19.6 °C 1012.8 hPa SW 5.8 km/h 5.8 km/h 63 % 0.0 mm
11:06 27.1 °C 19.4 °C 1012.8 hPa SW 7.4 km/h 7.4 km/h 63 % 0.0 mm
11:11 27.1 °C 19.2 °C 1012.8 hPa SW 5.6 km/h 5.6 km/h 62 % 0.0 mm
11:12 27.1 °C 19.2 °C 1012.8 hPa SSW 3.7 km/h 3.7 km/h 62 % 0.0 mm
11:17 27.4 °C 19.2 °C 1012.8 hPa SW 7.4 km/h 7.4 km/h 61 % 0.0 mm
11:22 27.4 °C 18.9 °C 1012.8 hPa West 7.4 km/h 7.4 km/h 60 % 0.0 mm
11:27 27.6 °C 18.9 °C 1012.8 hPa SSE 7.4 km/h 7.4 km/h 59 % 0.0 mm
11:32 28.0 °C 18.9 °C 1012.8 hPa SSE 3.7 km/h 3.7 km/h 58 % 0.0 mm
11:37 28.2 °C 18.9 °C 1011.7 hPa ENE 6.9 km/h 6.9 km/h 57 % 0.0 mm
11:42 28.0 °C 18.7 °C 1011.7 hPa NE 5.6 km/h 5.8 km/h 57 % 0.0 mm
11:47 27.9 °C 18.6 °C 1011.7 hPa SW 5.8 km/h 5.8 km/h 57 % 0.0 mm
11:52 28.9 °C 19.2 °C 1011.7 hPa SW 10.0 km/h 10.0 km/h 56 % 0.0 mm
11:57 28.8 °C 18.6 °C 1011.7 hPa SSW 7.4 km/h 7.4 km/h 54 % 0.0 mm
12:02 29.1 °C 18.2 °C 1011.7 hPa South 7.4 km/h 7.4 km/h 52 % 0.0 mm
12:07 29.3 °C 18.7 °C 1011.7 hPa SW 9.3 km/h 9.3 km/h 53 % 0.0 mm
12:12 29.2 °C 18.6 °C 1011.7 hPa SW 9.3 km/h 9.3 km/h 53 % 0.0 mm
12:17 29.6 °C 18.4 °C 1011.7 hPa ENE 6.4 km/h 6.4 km/h 51 % 0.0 mm
12:22 29.1 °C 18.2 °C 1011.7 hPa WSW 3.9 km/h 3.9 km/h 52 % 0.0 mm
12:27 29.0 °C 18.2 °C 1011.7 hPa ESE 9.3 km/h 9.3 km/h 52 % 0.0 mm
12:32 29.0 °C 18.4 °C 1011.7 hPa SW 3.7 km/h 3.7 km/h 53 % 0.0 mm
12:37 28.8 °C 18.3 °C 1011.7 hPa NE 7.4 km/h 7.4 km/h 53 % 0.0 mm
12:42 27.8 °C 18.2 °C 1011.7 hPa ESE 20.4 km/h 20.4 km/h 56 % 0.0 mm
12:47 28.1 °C 18.8 °C 1011.7 hPa South 11.1 km/h 11.1 km/h 57 % 0.0 mm
12:52 28.0 °C 18.9 °C 1011.7 hPa ESE 7.4 km/h 7.4 km/h 58 % 0.0 mm
12:57 27.7 °C 18.7 °C 1011.7 hPa ESE 11.1 km/h 11.1 km/h 58 % 0.0 mm
13:02 27.2 °C 18.5 °C 1011.7 hPa ESE 14.8 km/h 14.8 km/h 59 % 0.0 mm
13:07 27.2 °C 18.5 °C 1011.7 hPa ESE 9.3 km/h 9.3 km/h 59 % 0.0 mm
13:12 27.1 °C 18.7 °C 1011.7 hPa East 7.4 km/h 7.4 km/h 60 % 0.0 mm
13:17 27.1 °C 18.7 °C 1011.7 hPa SSW 9.3 km/h 9.3 km/h 60 % 0.0 mm
13:22 27.2 °C 18.5 °C 1012.8 hPa SSW 9.3 km/h 9.3 km/h 59 % 0.0 mm
13:27 27.2 °C 18.5 °C 1012.8 hPa WSW 5.6 km/h 5.6 km/h 59 % 0.0 mm
13:32 27.4 °C 18.7 °C 1012.8 hPa WSW 3.7 km/h 3.9 km/h 59 % 0.0 mm
13:37 27.7 °C 18.9 °C 1012.8 hPa SSW 5.6 km/h 5.6 km/h 59 % 0.0 mm
13:42 28.0 °C 19.2 °C 1012.8 hPa ESE 3.7 km/h 3.7 km/h 59 % 0.0 mm
13:47 28.0 °C 19.2 °C 1012.8 hPa South 5.6 km/h 5.6 km/h 59 % 0.0 mm
13:52 28.7 °C 19.9 °C 1012.8 hPa SW 7.4 km/h 7.4 km/h 59 % 0.0 mm
13:57 28.8 °C 19.7 °C 1012.8 hPa WSW 1.9 km/h 1.9 km/h 58 % 0.0 mm
13:59 28.8 °C 19.7 °C 1012.8 hPa South 3.7 km/h 3.7 km/h 58 % 0.0 mm
14:04 28.8 °C 19.7 °C 1012.8 hPa SSW 3.9 km/h   58 % 0.0 mm
14:09 28.6 °C 19.5 °C 1012.8 hPa South 3.7 km/h 3.7 km/h 58 % 0.0 mm
14:15 28.6 °C 18.9 °C 1012.8 hPa SSW 4.8 km/h 8.0 km/h 56 % 0.0 mm
14:20 29.0 °C 19.3 °C 1012.8 hPa SSW 3.2 km/h 9.7 km/h 56 % 0.0 mm
14:25 29.0 °C 19.3 °C 1011.7 hPa WSW 4.8 km/h 9.7 km/h 56 % 0.0 mm
14:30 29.3 °C 19.3 °C 1011.7 hPa South 7.4 km/h 7.4 km/h 55 % 0.0 mm
14:35 29.4 °C 19.4 °C 1011.7 hPa SSW 4.8 km/h 14.5 km/h 55 % 0.0 mm
14:40 29.9 °C 19.6 °C 1010.7 hPa SW 9.0 km/h 9.0 km/h 54 % 0.0 mm
14:45 29.8 °C 19.5 °C 1010.7 hPa SW 7.4 km/h 7.4 km/h 54 % 0.0 mm
14:50 30.4 °C 19.7 °C 1010.7 hPa SSE 7.4 km/h 7.4 km/h 53 % 0.0 mm
14:55 31.3 °C 20.3 °C 1011.7 hPa West 7.4 km/h 7.4 km/h 52 % 0.0 mm
15:00 30.8 °C 19.5 °C 1011.7 hPa SW 4.2 km/h 4.2 km/h 51 % 0.0 mm
15:05 30.8 °C 19.5 °C 1011.7 hPa SW 13.0 km/h 13.0 km/h 51 % 0.0 mm
15:10 30.9 °C 19.6 °C 1010.7 hPa SSW 9.3 km/h 9.3 km/h 51 % 0.0 mm
15:15 30.7 °C 19.1 °C 1010.7 hPa ENE 3.7 km/h 3.7 km/h 50 % 0.0 mm
15:20 31.6 °C 19.6 °C 1010.7 hPa WNW 6.1 km/h 6.1 km/h 49 % 0.0 mm
15:25 31.5 °C 19.2 °C 1011.7 hPa SW 4.8 km/h 9.7 km/h 48 % 0.0 mm
15:30 31.7 °C 19.0 °C 1011.7 hPa SSW 7.4 km/h 7.4 km/h 47 % 0.0 mm
15:35 31.2 °C 19.2 °C 1011.7 hPa ESE 9.3 km/h 9.3 km/h 49 % 0.0 mm
15:40 31.1 °C 19.1 °C 1011.7 hPa ESE 10.3 km/h 10.3 km/h 49 % 0.0 mm
15:45 30.6 °C 19.3 °C 1011.7 hPa ESE 4.8 km/h 11.3 km/h 51 % 0.0 mm
15:50 30.9 °C 19.6 °C 1011.7 hPa East 11.4 km/h 11.4 km/h 51 % 0.0 mm
15:55 30.5 °C 19.2 °C 1011.7 hPa ESE 4.8 km/h 12.9 km/h 51 % 0.0 mm
16:00 30.3 °C 19.1 °C 1011.7 hPa ESE 11.1 km/h 11.1 km/h 51 % 0.0 mm
16:05 29.9 °C 18.7 °C 1011.7 hPa East 4.8 km/h 11.3 km/h 51 % 0.0 mm
16:10 30.1 °C 19.1 °C 1011.7 hPa ENE 9.7 km/h 16.1 km/h 52 % 0.0 mm
16:15 30.9 °C 19.3 °C 1011.7 hPa SSE 4.8 km/h 20.9 km/h 50 % 0.0 mm
16:20 31.6 °C 19.6 °C 1011.7 hPa WNW 7.4 km/h 7.4 km/h 49 % 0.0 mm
16:25 32.5 °C 19.7 °C 1011.7 hPa SSE 5.8 km/h 5.8 km/h 47 % 0.0 mm
16:30 31.5 °C 19.5 °C 1011.7 hPa NE 5.8 km/h 5.8 km/h 49 % 0.0 mm
16:35 31.5 °C 19.2 °C 1011.7 hPa WSW 9.3 km/h 9.3 km/h 48 % 0.0 mm
16:40 32.4 °C 19.7 °C 1011.7 hPa SW 3.7 km/h 3.7 km/h 47 % 0.0 mm
16:45 32.4 °C 19.7 °C 1011.7 hPa WSW 9.3 km/h 9.3 km/h 47 % 0.0 mm
16:50 31.9 °C 19.2 °C 1011.7 hPa SSW 4.8 km/h 11.3 km/h 47 % 0.0 mm
16:55 31.7 °C 18.7 °C 1011.7 hPa SSE 3.2 km/h 11.3 km/h 46 % 0.0 mm
17:00 30.4 °C 17.8 °C 1011.7 hPa ESE 3.2 km/h 8.0 km/h 47 % 0.0 mm
17:05 30.7 °C 18.1 °C 1011.7 hPa ESE 3.2 km/h 9.7 km/h 47 % 0.0 mm
17:10 31.0 °C 18.4 °C 1011.7 hPa South 3.2 km/h 8.0 km/h 47 % 0.0 mm
17:15 30.6 °C 18.3 °C 1011.7 hPa SSW 4.8 km/h 12.9 km/h 48 % 0.0 mm
17:17 30.6 °C 18.7 °C 1011.7 hPa WSW 9.3 km/h 9.3 km/h 49 % 0.0 mm
17:22 30.2 °C 18.3 °C 1011.7 hPa SW 9.3 km/h 9.3 km/h 49 % 0.0 mm
17:27 29.9 °C 18.3 °C 1011.7 hPa SW 11.1 km/h 11.1 km/h 50 % 0.0 mm
17:32 29.8 °C 18.3 °C 1011.7 hPa SW 11.1 km/h 11.1 km/h 50 % 0.0 mm
17:37 29.7 °C 18.2 °C 1011.7 hPa SW 11.1 km/h 11.1 km/h 50 % 0.0 mm
17:42 29.5 °C 18.3 °C 1011.7 hPa West 11.1 km/h 11.1 km/h 51 % 0.0 mm
17:47 29.2 °C 18.0 °C 1011.7 hPa WSW 16.7 km/h 16.7 km/h 51 % 0.0 mm
17:55 29.0 °C 18.2 °C 1010.7 hPa SSW 13.0 km/h 13.0 km/h 52 % 0.0 mm
18:00 29.0 °C 18.4 °C 1010.7 hPa SW 11.1 km/h 11.1 km/h 53 % 0.0 mm
18:05 29.0 °C 18.4 °C 1011.7 hPa South 11.1 km/h 11.1 km/h 53 % 0.0 mm
18:10 29.6 °C 18.7 °C 1011.7 hPa SW 7.4 km/h 7.4 km/h 52 % 0.0 mm
18:15 29.8 °C 18.9 °C 1011.7 hPa SW 9.3 km/h 9.3 km/h 52 % 0.0 mm
18:20 30.0 °C 19.1 °C 1010.7 hPa SSW 14.8 km/h 14.8 km/h 52 % 0.0 mm
18:25 29.9 °C 18.7 °C 1010.7 hPa SSW 13.0 km/h 13.0 km/h 51 % 0.0 mm
18:30 29.4 °C 18.2 °C 1010.7 hPa SSW 11.1 km/h 11.1 km/h 51 % 0.0 mm
18:35 29.4 °C 18.5 °C 1011.7 hPa WSW 9.3 km/h 9.3 km/h 52 % 0.0 mm
18:40 29.0 °C 17.8 °C 1011.7 hPa WSW 13.0 km/h 13.0 km/h 51 % 0.0 mm
18:45 28.7 °C 18.2 °C 1011.7 hPa SW 13.0 km/h 13.0 km/h 53 % 0.0 mm
18:50 28.5 °C 18.0 °C 1011.7 hPa West 14.8 km/h 14.8 km/h 53 % 0.0 mm
18:51 28.5 °C 18.0 °C 1011.7 hPa South 14.8 km/h 14.8 km/h 53 % 0.0 mm
18:56 28.2 °C 18.0 °C 1011.7 hPa SW 20.4 km/h 20.4 km/h 54 % 0.0 mm
19:01 28.1 °C 17.9 °C 1011.7 hPa SW 14.8 km/h 14.8 km/h 54 % 0.0 mm
19:06 28.1 °C 17.9 °C 1011.7 hPa SW 13.0 km/h 13.0 km/h 54 % 0.0 mm
19:10 24.1 °C 17.8 °C 1014.8 hPa Calm     68 % 0.0 mm
19:11 28.4 °C 18.2 °C 1011.7 hPa South 9.3 km/h 9.3 km/h 54 % 0.0 mm
19:16 28.7 °C 18.5 °C 1011.7 hPa WSW 14.0 km/h 14.0 km/h 54 % 0.0 mm
19:20 24.0 °C 17.9 °C 1014.8 hPa Calm   1.6 km/h 69 % 0.0 mm
19:21 28.8 °C 18.6 °C 1011.7 hPa South 9.3 km/h 9.3 km/h 54 % 0.0 mm
19:26 28.7 °C 18.5 °C 1011.7 hPa SW 12.6 km/h 12.6 km/h 54 % 0.0 mm
19:30 23.9 °C 18.1 °C 1014.8 hPa WNW 1.6 km/h 1.6 km/h 70 % 0.0 mm
19:31 28.5 °C 18.3 °C 1011.7 hPa SSW 9.3 km/h 9.3 km/h 54 % 0.0 mm
19:36 28.5 °C 18.3 °C 1011.7 hPa SSW 8.7 km/h 8.7 km/h 54 % 0.0 mm
19:40 23.8 °C 18.2 °C 1014.8 hPa Calm   1.6 km/h 71 % 0.0 mm
19:41 28.5 °C 18.3 °C 1011.7 hPa SW 15.1 km/h 15.1 km/h 54 % 0.0 mm
19:46 28.3 °C 17.8 °C 1011.7 hPa South 13.0 km/h 13.0 km/h 53 % 0.0 mm
19:50 23.6 °C 18.1 °C 1014.8 hPa Calm   3.2 km/h 71 % 0.0 mm
19:51 28.1 °C 17.6 °C 1011.7 hPa SSE 9.3 km/h 9.5 km/h 53 % 0.0 mm
19:56 28.0 °C 17.5 °C 1011.7 hPa South 13.0 km/h 13.0 km/h 53 % 0.0 mm
20:00 23.5 °C 17.9 °C 1014.8 hPa Calm   1.6 km/h 71 % 0.0 mm
20:01 27.8 °C 17.7 °C 1011.7 hPa SSW 13.0 km/h 13.0 km/h 54 % 0.0 mm
20:06 27.7 °C 17.6 °C 1011.7 hPa SW 7.4 km/h 7.4 km/h 54 % 0.0 mm
20:10 23.5 °C 18.2 °C 1014.8 hPa Calm   1.6 km/h 72 % 0.0 mm
20:11 27.6 °C 17.4 °C 1011.7 hPa SSW 9.3 km/h 9.3 km/h 54 % 0.0 mm
20:16 27.5 °C 17.4 °C 1011.7 hPa SW 7.4 km/h 7.4 km/h 54 % 0.0 mm
20:20 23.5 °C 18.2 °C 1014.8 hPa WSW 1.6 km/h 3.2 km/h 72 % 0.0 mm
20:21 27.5 °C 17.4 °C 1011.7 hPa SW 5.6 km/h 5.6 km/h 54 % 0.0 mm
20:26 27.5 °C 17.7 °C 1011.7 hPa SSW 7.4 km/h 7.4 km/h 55 % 0.0 mm
20:30 23.5 °C 18.4 °C 1015.8 hPa Calm   3.2 km/h 73 % 0.0 mm
20:31 27.3 °C 17.4 °C 1011.7 hPa SSW 7.4 km/h 7.4 km/h 55 % 0.0 mm
20:36 27.2 °C 17.4 °C 1011.7 hPa WNW 11.1 km/h 11.1 km/h 55 % 0.0 mm
20:40 23.4 °C 18.3 °C 1015.8 hPa WSW 3.2 km/h 4.8 km/h 73 % 0.0 mm
20:41 27.1 °C 17.6 °C 1011.7 hPa SSW 8.7 km/h 8.7 km/h 56 % 0.0 mm
20:46 26.9 °C 17.7 °C 1011.7 hPa WSW 9.3 km/h 9.3 km/h 57 % 0.0 mm
20:50 23.4 °C 18.5 °C 1015.8 hPa WSW 1.6 km/h 3.2 km/h 74 % 0.0 mm
20:51 26.8 °C 17.8 °C 1011.7 hPa SW 5.6 km/h 5.6 km/h 58 % 0.0 mm
20:56 26.7 °C 17.8 °C 1011.7 hPa SW 9.3 km/h 9.3 km/h 58 % 0.0 mm
21:00 23.4 °C 18.7 °C 1015.8 hPa West 1.6 km/h 1.6 km/h 75 % 0.0 mm
21:01 26.6 °C 17.7 °C 1011.7 hPa SW 9.3 km/h 9.3 km/h 58 % 0.0 mm
21:06 26.5 °C 17.8 °C 1011.7 hPa SW 9.3 km/h 9.3 km/h 59 % 0.0 mm
21:10 23.1 °C 18.4 °C 1015.8 hPa NE 1.6 km/h 3.2 km/h 75 % 0.0 mm
21:11 26.4 °C 17.7 °C 1011.7 hPa SW 9.3 km/h 9.3 km/h 59 % 0.0 mm
21:16 26.3 °C 17.7 °C 1011.7 hPa SW 9.3 km/h 9.3 km/h 59 % 0.0 mm
21:20 22.9 °C 18.4 °C 1015.8 hPa ESE 3.2 km/h 4.8 km/h 76 % 0.0 mm
21:21 26.2 °C 17.8 °C 1012.8 hPa WSW 5.6 km/h 5.6 km/h 60 % 0.0 mm
21:26 26.1 °C 17.7 °C 1012.8 hPa SW 8.7 km/h 8.7 km/h 60 % 0.0 mm
21:30 22.7 °C 18.1 °C 1015.8 hPa East 1.6 km/h 3.2 km/h 75 % 0.0 mm
21:31 26.0 °C 17.6 °C 1012.8 hPa SSW 7.4 km/h 7.4 km/h 60 % 0.0 mm
21:36 25.9 °C 17.6 °C 1012.8 hPa SW 5.6 km/h 5.6 km/h 60 % 0.0 mm
21:40 22.6 °C 17.9 °C 1015.8 hPa East 1.6 km/h 1.6 km/h 75 % 0.0 mm
21:41 25.8 °C 17.7 °C 1012.8 hPa WSW 9.3 km/h 9.3 km/h 61 % 0.0 mm
21:46 25.7 °C 17.6 °C 1012.8 hPa SW 7.4 km/h 7.4 km/h 61 % 0.0 mm
21:50 22.5 °C 17.8 °C 1015.8 hPa Calm     75 % 0.0 mm
21:51 25.6 °C 17.5 °C 1013.8 hPa SSW 5.6 km/h 5.6 km/h 61 % 0.0 mm
21:56 25.5 °C 17.4 °C 1013.8 hPa WSW 5.6 km/h 5.6 km/h 61 % 0.0 mm
22:00 22.3 °C 17.9 °C 1016.8 hPa SSE 1.6 km/h 3.2 km/h 76 % 0.0 mm
22:01 25.5 °C 17.4 °C 1013.8 hPa WSW 5.6 km/h 5.6 km/h 61 % 0.0 mm
22:06 25.4 °C 17.3 °C 1013.8 hPa SW 5.6 km/h 5.6 km/h 61 % 0.0 mm
22:10 22.3 °C 17.9 °C 1015.8 hPa Calm   3.2 km/h 76 % 0.0 mm
22:11 25.3 °C 17.5 °C 1013.8 hPa South 7.4 km/h 7.4 km/h 62 % 0.0 mm
22:16 25.2 °C 17.4 °C 1013.8 hPa SW 3.7 km/h 3.7 km/h 62 % 0.0 mm
22:20 22.4 °C 17.9 °C 1015.8 hPa Calm   3.2 km/h 76 % 0.0 mm
22:21 25.1 °C 17.3 °C 1013.8 hPa SW 5.6 km/h 5.6 km/h 62 % 0.0 mm
22:26 25.1 °C 17.6 °C 1013.8 hPa SW 3.7 km/h 3.7 km/h 63 % 0.0 mm
22:30 22.4 °C 17.9 °C 1015.8 hPa Calm     76 % 0.0 mm
22:31 25.0 °C 17.4 °C 1013.8 hPa SW 5.0 km/h 5.0 km/h 63 % 0.0 mm
22:36 25.0 °C 17.4 °C 1013.8 hPa SW 3.7 km/h 3.7 km/h 63 % 0.0 mm
22:40 22.5 °C 18.3 °C 1015.8 hPa ENE 1.6 km/h 1.6 km/h 77 % 0.0 mm
22:41 24.9 °C 17.6 °C 1013.8 hPa SW 5.6 km/h 5.6 km/h 64 % 0.0 mm
22:46 24.9 °C 17.9 °C 1013.8 hPa WSW 1.9 km/h 1.9 km/h 65 % 0.0 mm
22:50 22.6 °C 18.4 °C 1015.8 hPa Calm   3.2 km/h 77 % 0.0 mm
22:51 24.8 °C 17.8 °C 1013.8 hPa WSW 1.9 km/h 1.9 km/h 65 % 0.0 mm
22:56 24.8 °C 17.8 °C 1013.8 hPa WNW 1.9 km/h   65 % 0.0 mm
22:57 24.8 °C 17.8 °C 1013.8 hPa Calm     65 % 0.0 mm
23:00 22.6 °C 18.4 °C 1015.8 hPa NE 1.6 km/h 3.2 km/h 77 % 0.0 mm
23:02 24.8 °C 17.8 °C 1013.8 hPa West 1.9 km/h 1.9 km/h 65 % 0.0 mm
23:07 24.7 °C 17.9 °C 1013.8 hPa Calm     66 % 0.0 mm
23:10 22.8 °C 18.6 °C 1015.8 hPa NNE 1.6 km/h 3.2 km/h 77 % 0.0 mm
23:12 24.7 °C 17.9 °C 1013.8 hPa WSW 1.4 km/h   66 % 0.0 mm
23:17 24.6 °C 17.8 °C 1013.8 hPa Calm     66 % 0.0 mm
23:20 22.9 °C 18.7 °C 1015.8 hPa NNE 3.2 km/h 4.8 km/h 77 % 0.0 mm
23:22 24.6 °C 17.8 °C 1013.8 hPa Calm     66 % 0.0 mm
23:27 24.5 °C 17.9 °C 1013.8 hPa WSW 2.3 km/h 2.3 km/h 67 % 0.0 mm
23:30 22.9 °C 18.4 °C 1015.8 hPa NNE 3.2 km/h 4.8 km/h 76 % 0.0 mm
23:32 24.5 °C 17.9 °C 1013.8 hPa Calm     67 % 0.0 mm
23:37 24.4 °C 17.9 °C 1013.8 hPa WSW 3.9 km/h   67 % 0.0 mm
23:40 22.7 °C 18.4 °C 1015.8 hPa Calm   3.2 km/h 77 % 0.0 mm
23:42 24.4 °C 17.9 °C 1013.8 hPa WSW 3.7 km/h 3.7 km/h 67 % 0.0 mm
23:47 24.4 °C 17.9 °C 1013.8 hPa West 4.2 km/h 4.2 km/h 67 % 0.0 mm
23:50 22.6 °C 18.4 °C 1015.8 hPa Calm     77 % 0.0 mm
23:52 24.3 °C 18.0 °C 1014.8 hPa WSW 1.9 km/h   68 % 0.0 mm
23:57 24.3 °C 18.0 °C 1014.8 hPa WSW 1.9 km/h 1.9 km/h 68 % 0.0 mm
Meteo Sesrovires
Elogis d' Weather Underground - 3.75 mb

Guio original per  Jim McMurry - jmcmurry@mwt.net Adaptat per a la plantilla per  Wim van der Kuil - Leuven-Template.eu

Trobareu la nostra informacio del temps tambe a:

Weather Underground

AWEKAS